Time;durP1;ratioP1;P1;durP2;ratioP2;P2;SDS_P1;SDS_P2;PMS_P1;PMS_P2;Temp;Humidity;BMP_temperature;BMP_pressure;BME280_temperature;BME280_humidity;BME280_pressure;Samples;Min_cycle;Max_cycle;Signal;HPM_P1;HPM_P2
2022/10/22 00:00:10;;;;;;;;;;;13.10;99.90;;;;;;5112070;27;1980;-65
2022/10/22 00:02:35;;;;;;;;;;;13.10;99.90;;;;;;5112593;27;1132;-65
2022/10/22 00:05:01;;;;;;;;;;;12.90;99.90;;;;;;5130996;27;1104;-65
2022/10/22 00:07:27;;;;;;;;;;;12.70;99.90;;;;;;5134299;27;1310;-65
2022/10/22 00:09:52;;;;;;;;;;;12.60;99.90;;;;;;5134210;27;1172;-65
2022/10/22 00:12:18;;;;;;;;;;;12.50;99.90;;;;;;5131001;27;1195;-65
2022/10/22 00:14:44;;;;;;;;;;;12.50;99.90;;;;;;5130523;27;1280;-65
2022/10/22 00:17:10;;;;;;;;;;;12.60;99.90;;;;;;5131069;27;1146;-65
2022/10/22 00:19:35;;;;;;;;;;;12.50;99.90;;;;;;5130603;27;1140;-65
2022/10/22 00:22:04;;;;;;;;;;;12.40;99.90;;;;;;5130482;27;1910;-65
2022/10/22 00:24:30;;;;;;;;;;;12.40;99.90;;;;;;5130952;27;1135;-65
2022/10/22 00:26:56;;;;;;;;;;;12.30;99.90;;;;;;5130440;27;1134;-65
2022/10/22 00:29:22;;;;;;;;;;;12.20;99.90;;;;;;5130051;27;1199;-65
2022/10/22 00:31:48;;;;;;;;;;;12.20;99.90;;;;;;5131071;27;1123;-65
2022/10/22 00:34:15;;;;;;;;;;;12.20;99.90;;;;;;5142165;27;1376;-65
2022/10/22 00:36:41;;;;;;;;;;;12.20;99.90;;;;;;5129752;27;1203;-65
2022/10/22 00:39:07;;;;;;;;;;;12.20;99.90;;;;;;5130830;27;1076;-65
2022/10/22 00:41:33;;;;;;;;;;;12.20;99.90;;;;;;5130330;27;1993;-65
2022/10/22 00:44:01;;;;;;;;;;;12.20;99.90;;;;;;5129559;27;1182;-65
2022/10/22 00:46:27;;;;;;;;;;;12.30;99.90;;;;;;5130947;27;1108;-65
2022/10/22 00:48:54;;;;;;;;;;;12.30;99.90;;;;;;5116950;27;1175;-65
2022/10/22 00:51:20;;;;;;;;;;;12.30;99.90;;;;;;5109850;28;1028;-65
2022/10/22 00:53:48;;;;;;;;;;;12.40;99.90;;;;;;5109544;28;1092;-65
2022/10/22 00:56:14;;;;;;;;;;;12.40;99.90;;;;;;5091568;28;1120;-65
2022/10/22 00:58:42;;;;;;;;;;;12.40;99.90;;;;;;5108781;28;1112;-65
2022/10/22 01:01:12;;;;;;;;;;;12.30;99.90;;;;;;5091196;28;2015;-65
2022/10/22 01:03:37;;;;;;;;;;;12.30;99.90;;;;;;5104881;28;1156;-65
2022/10/22 01:06:04;;;;;;;;;;;12.30;99.90;;;;;;5109791;28;1174;-65
2022/10/22 01:08:34;;;;;;;;;;;12.30;99.90;;;;;;5109778;28;1085;-65
2022/10/22 01:11:06;;;;;;;;;;;12.30;99.90;;;;;;5107544;28;1104;-65
2022/10/22 01:13:36;;;;;;;;;;;12.30;99.90;;;;;;5109895;28;1083;-65
2022/10/22 01:16:13;;;;;;;;;;;12.30;99.90;;;;;;5110035;28;1109;-65
2022/10/22 01:18:40;;;;;;;;;;;12.30;99.90;;;;;;5108660;28;1136;-65
2022/10/22 01:21:21;;;;;;;;;;;12.20;99.90;;;;;;5108744;28;1917;-65
2022/10/22 01:23:47;;;;;;;;;;;12.20;99.90;;;;;;5109225;28;1187;-65
2022/10/22 01:26:29;;;;;;;;;;;12.20;99.90;;;;;;5107761;28;1353;-65
2022/10/22 01:29:01;;;;;;;;;;;12.20;99.90;;;;;;5107272;28;1270;-64
2022/10/22 01:31:30;;;;;;;;;;;12.20;99.90;;;;;;5088372;28;1098;-65
2022/10/22 01:33:57;;;;;;;;;;;12.20;99.90;;;;;;5108311;28;1076;-64
2022/10/22 01:36:24;;;;;;;;;;;12.20;99.90;;;;;;5109567;28;1132;-64
2022/10/22 01:38:50;;;;;;;;;;;12.30;99.90;;;;;;5108453;28;1204;-65
2022/10/22 01:41:16;;;;;;;;;;;12.20;99.90;;;;;;5109018;28;1918;-65
2022/10/22 01:43:41;;;;;;;;;;;12.20;99.90;;;;;;5090944;28;1097;-65
2022/10/22 01:46:09;;;;;;;;;;;12.10;99.90;;;;;;5107915;28;1063;-65
2022/10/22 01:48:44;;;;;;;;;;;12.10;99.90;;;;;;5118926;28;1159;-65
2022/10/22 01:51:16;;;;;;;;;;;12.00;99.90;;;;;;5129870;27;1170;-65
2022/10/22 01:53:51;;;;;;;;;;;12.00;99.90;;;;;;5110864;28;1130;-65
2022/10/22 01:56:35;;;;;;;;;;;11.90;99.90;;;;;;5128705;27;1161;-64
2022/10/22 01:59:13;;;;;;;;;;;12.00;99.90;;;;;;5129847;28;1004;-64
2022/10/22 02:01:45;;;;;;;;;;;12.00;99.90;;;;;;5129017;28;2004;-64
2022/10/22 02:04:10;;;;;;;;;;;12.00;99.90;;;;;;5112481;28;1154;-64
2022/10/22 02:06:37;;;;;;;;;;;12.00;99.90;;;;;;5126461;28;2077;-64
2022/10/22 02:09:04;;;;;;;;;;;12.00;99.90;;;;;;5128459;28;1254;-65
2022/10/22 02:11:30;;;;;;;;;;;12.00;99.90;;;;;;5128997;28;1230;-64
2022/10/22 02:13:56;;;;;;;;;;;12.00;99.90;;;;;;5110247;28;1130;-64
2022/10/22 02:16:25;;;;;;;;;;;12.00;99.90;;;;;;5129725;28;1155;-64
2022/10/22 02:18:53;;;;;;;;;;;11.90;99.90;;;;;;5129397;28;1084;-64
2022/10/22 02:21:18;;;;;;;;;;;11.90;99.90;;;;;;5128533;27;1921;-64
2022/10/22 02:23:45;;;;;;;;;;;11.90;99.90;;;;;;5133260;27;1100;-64
2022/10/22 02:26:18;;;;;;;;;;;11.90;99.90;;;;;;5133009;27;1159;-65
2022/10/22 02:28:50;;;;;;;;;;;11.90;99.90;;;;;;5132461;27;1286;-64
2022/10/22 02:31:22;;;;;;;;;;;11.90;99.90;;;;;;5132822;27;1179;-64
2022/10/22 02:33:49;;;;;;;;;;;11.90;99.90;;;;;;5114097;27;1220;-64
2022/10/22 02:36:16;;;;;;;;;;;11.90;99.90;;;;;;5132428;27;1058;-64
2022/10/22 02:38:42;;;;;;;;;;;11.90;99.90;;;;;;5133112;27;1119;-64
2022/10/22 02:41:08;;;;;;;;;;;11.90;99.90;;;;;;5132624;27;1906;-64
2022/10/22 02:43:41;;;;;;;;;;;11.90;99.90;;;;;;5132533;27;1070;-64
2022/10/22 02:46:07;;;;;;;;;;;11.90;99.90;;;;;;5131316;27;1094;-64
2022/10/22 02:48:33;;;;;;;;;;;11.90;99.90;;;;;;5131758;27;1261;-64
2022/10/22 02:50:59;;;;;;;;;;;11.90;99.90;;;;;;5112915;27;1096;-64
2022/10/22 02:53:24;;;;;;;;;;;11.90;99.90;;;;;;5112374;28;1145;-64
2022/10/22 02:55:50;;;;;;;;;;;11.90;99.90;;;;;;5111790;28;1081;-64
2022/10/22 02:58:15;;;;;;;;;;;11.90;99.90;;;;;;5116605;27;1177;-64
2022/10/22 03:00:41;;;;;;;;;;;11.90;99.90;;;;;;5112180;28;1898;-64
2022/10/22 03:03:07;;;;;;;;;;;11.90;99.90;;;;;;5092711;28;1152;-64
2022/10/22 03:05:32;;;;;;;;;;;11.90;99.90;;;;;;5116510;27;1100;-64
2022/10/22 03:07:58;;;;;;;;;;;11.90;99.90;;;;;;5120909;27;1135;-64
2022/10/22 03:10:24;;;;;;;;;;;11.90;99.90;;;;;;5110827;28;1148;-64
2022/10/22 03:12:49;;;;;;;;;;;11.90;99.90;;;;;;5111891;28;1088;-64
2022/10/22 03:15:15;;;;;;;;;;;11.90;99.90;;;;;;5118661;27;1080;-64
2022/10/22 03:17:40;;;;;;;;;;;11.80;99.90;;;;;;5110543;28;1140;-64
2022/10/22 03:20:06;;;;;;;;;;;11.80;99.90;;;;;;5111628;28;1913;-64
2022/10/22 03:22:33;;;;;;;;;;;11.80;99.90;;;;;;5111959;28;1170;-64
2022/10/22 03:25:01;;;;;;;;;;;11.80;99.90;;;;;;5110933;27;1141;-64
2022/10/22 03:27:28;;;;;;;;;;;11.90;99.90;;;;;;5111705;28;1139;-64
2022/10/22 03:29:54;;;;;;;;;;;11.90;99.90;;;;;;5103669;28;1308;-65
2022/10/22 03:32:19;;;;;;;;;;;11.90;99.90;;;;;;5116883;27;1004;-65
2022/10/22 03:34:45;;;;;;;;;;;11.90;99.90;;;;;;5093250;28;1080;-64
2022/10/22 03:37:11;;;;;;;;;;;11.90;99.90;;;;;;5111276;28;1115;-64
2022/10/22 03:39:37;;;;;;;;;;;11.80;99.90;;;;;;5092139;28;1136;-64
2022/10/22 03:42:03;;;;;;;;;;;11.80;99.90;;;;;;5111753;27;1970;-64
2022/10/22 03:44:29;;;;;;;;;;;11.70;99.90;;;;;;5110767;28;1100;-64
2022/10/22 03:46:55;;;;;;;;;;;11.70;99.90;;;;;;5109856;28;1278;-65
2022/10/22 03:49:20;;;;;;;;;;;11.70;99.90;;;;;;5126672;27;1129;-64
2022/10/22 03:51:46;;;;;;;;;;;11.60;99.90;;;;;;5131828;27;1086;-64
2022/10/22 03:54:11;;;;;;;;;;;11.60;99.90;;;;;;5130215;27;1079;-64
2022/10/22 03:56:37;;;;;;;;;;;11.50;99.90;;;;;;5131898;27;1104;-64
2022/10/22 03:59:03;;;;;;;;;;;11.50;99.90;;;;;;5131396;27;1072;-64
2022/10/22 04:01:29;;;;;;;;;;;11.50;99.90;;;;;;5130423;27;1909;-64
2022/10/22 04:03:55;;;;;;;;;;;11.60;99.90;;;;;;5131153;27;1167;-64
2022/10/22 04:06:21;;;;;;;;;;;11.60;99.90;;;;;;5130803;27;1213;-64
2022/10/22 04:08:47;;;;;;;;;;;11.60;99.90;;;;;;5129809;27;1107;-64
2022/10/22 04:11:13;;;;;;;;;;;11.60;99.90;;;;;;5112437;27;1060;-64
2022/10/22 04:13:39;;;;;;;;;;;11.60;99.90;;;;;;5128960;27;1231;-64
2022/10/22 04:16:06;;;;;;;;;;;11.60;99.90;;;;;;5130405;27;1237;-64
2022/10/22 04:18:31;;;;;;;;;;;11.60;99.90;;;;;;5130245;27;1076;-64
2022/10/22 04:20:57;;;;;;;;;;;11.60;99.90;;;;;;5130127;27;1910;-64
2022/10/22 04:23:23;;;;;;;;;;;11.60;99.90;;;;;;5129458;27;1226;-64
2022/10/22 04:25:48;;;;;;;;;;;11.60;99.90;;;;;;5114961;27;1198;-64
2022/10/22 04:28:14;;;;;;;;;;;11.60;99.90;;;;;;5129578;27;1161;-65
2022/10/22 04:30:39;;;;;;;;;;;11.60;99.90;;;;;;5111490;27;1218;-64
2022/10/22 04:33:05;;;;;;;;;;;11.60;99.90;;;;;;5130415;27;1286;-64
2022/10/22 04:35:31;;;;;;;;;;;11.60;99.90;;;;;;5130099;27;1143;-64
2022/10/22 04:37:56;;;;;;;;;;;11.60;99.90;;;;;;5130251;27;1088;-64
2022/10/22 04:40:22;;;;;;;;;;;11.60;99.90;;;;;;5131000;27;1973;-64
2022/10/22 04:42:47;;;;;;;;;;;11.60;99.90;;;;;;5111179;27;1175;-64
2022/10/22 04:45:14;;;;;;;;;;;11.60;99.90;;;;;;5130058;27;1121;-64
2022/10/22 04:47:40;;;;;;;;;;;11.60;99.90;;;;;;5127886;27;1266;-65
2022/10/22 04:50:07;;;;;;;;;;;11.60;99.90;;;;;;5109506;28;1140;-65
2022/10/22 04:52:32;;;;;;;;;;;11.50;99.90;;;;;;5109212;28;1171;-65
2022/10/22 04:54:58;;;;;;;;;;;11.50;99.90;;;;;;5110237;28;1093;-64
2022/10/22 04:57:23;;;;;;;;;;;11.50;99.90;;;;;;5109361;28;1179;-65
2022/10/22 04:59:49;;;;;;;;;;;11.50;99.90;;;;;;5091695;28;1108;-65
2022/10/22 05:02:14;;;;;;;;;;;11.50;99.90;;;;;;5109270;28;1906;-65
2022/10/22 05:04:42;;;;;;;;;;;11.50;99.90;;;;;;5108505;28;1266;-65
2022/10/22 05:07:08;;;;;;;;;;;11.50;99.90;;;;;;5109319;28;1227;-65
2022/10/22 05:09:33;;;;;;;;;;;11.50;99.90;;;;;;5108619;28;1211;-64
2022/10/22 05:11:59;;;;;;;;;;;11.60;99.90;;;;;;5108455;28;1211;-65
2022/10/22 05:14:25;;;;;;;;;;;11.60;99.90;;;;;;5108826;28;1151;-64
2022/10/22 05:16:50;;;;;;;;;;;11.50;99.90;;;;;;5079574;28;1103;-65
2022/10/22 05:19:18;;;;;;;;;;;11.60;99.90;;;;;;5108328;28;1130;-65
2022/10/22 05:21:43;;;;;;;;;;;11.60;99.90;;;;;;5109656;28;1907;-65
2022/10/22 05:24:09;;;;;;;;;;;11.60;99.90;;;;;;5108332;28;1067;-64
2022/10/22 05:26:35;;;;;;;;;;;11.60;99.90;;;;;;5109383;28;1120;-64
2022/10/22 05:29:00;;;;;;;;;;;11.60;99.90;;;;;;5106981;28;1278;-64
2022/10/22 05:31:27;;;;;;;;;;;11.60;99.90;;;;;;5109842;28;981;-64
2022/10/22 05:33:53;;;;;;;;;;;11.60;99.90;;;;;;5109408;28;1028;-64
2022/10/22 05:36:20;;;;;;;;;;;11.60;99.90;;;;;;5109139;28;1132;-64
2022/10/22 05:38:46;;;;;;;;;;;11.70;99.90;;;;;;5108612;28;1136;-64
2022/10/22 05:41:13;;;;;;;;;;;11.70;99.90;;;;;;5109350;28;1955;-64
2022/10/22 05:43:39;;;;;;;;;;;11.70;99.90;;;;;;5109472;28;1152;-64
2022/10/22 05:46:06;;;;;;;;;;;11.70;99.90;;;;;;5098120;28;1112;-64
2022/10/22 05:48:32;;;;;;;;;;;11.70;99.90;;;;;;5109090;28;1314;-64
2022/10/22 05:51:03;;;;;;;;;;;11.70;99.90;;;;;;5109379;28;1104;-64
2022/10/22 05:53:29;;;;;;;;;;;11.70;99.90;;;;;;5107975;28;1096;-65
2022/10/22 05:55:55;;;;;;;;;;;11.70;99.90;;;;;;5109425;28;1144;-64
2022/10/22 05:58:20;;;;;;;;;;;11.70;99.90;;;;;;5113011;28;1159;-64
2022/10/22 06:00:46;;;;;;;;;;;11.70;99.90;;;;;;5112254;28;1902;-64
2022/10/22 06:03:11;;;;;;;;;;;11.70;99.90;;;;;;5113136;28;1116;-65
2022/10/22 06:05:37;;;;;;;;;;;11.70;99.90;;;;;;5113156;28;1108;-64
2022/10/22 06:08:03;;;;;;;;;;;11.70;99.90;;;;;;5111831;28;1084;-64
2022/10/22 06:10:29;;;;;;;;;;;11.70;99.90;;;;;;5113269;28;1112;-64
2022/10/22 06:12:54;;;;;;;;;;;11.70;99.90;;;;;;5108400;28;1189;-64
2022/10/22 06:15:20;;;;;;;;;;;11.70;99.90;;;;;;5111642;28;1108;-65
2022/10/22 06:17:46;;;;;;;;;;;11.70;99.90;;;;;;5113035;28;1075;-64
2022/10/22 06:20:12;;;;;;;;;;;11.70;99.90;;;;;;5111658;28;1926;-64
2022/10/22 06:22:38;;;;;;;;;;;11.60;99.90;;;;;;5112653;28;1069;-64
2022/10/22 06:25:04;;;;;;;;;;;11.70;99.90;;;;;;5112940;28;1113;-64
2022/10/22 06:27:30;;;;;;;;;;;11.70;99.90;;;;;;5112204;28;1120;-65
2022/10/22 06:29:55;;;;;;;;;;;11.70;99.90;;;;;;5105435;27;1310;-65
2022/10/22 06:32:21;;;;;;;;;;;11.70;99.90;;;;;;5112579;28;1162;-65
2022/10/22 06:34:47;;;;;;;;;;;11.80;99.90;;;;;;5111957;28;1108;-65
2022/10/22 06:37:14;;;;;;;;;;;11.80;99.90;;;;;;5093772;28;1017;-64
2022/10/22 06:39:39;;;;;;;;;;;11.90;99.90;;;;;;5112130;28;1209;-65
2022/10/22 06:42:05;;;;;;;;;;;11.90;99.90;;;;;;5111747;28;2003;-65
2022/10/22 06:44:33;;;;;;;;;;;12.00;99.90;;;;;;5093810;28;1160;-65
2022/10/22 06:46:59;;;;;;;;;;;12.10;99.90;;;;;;5093631;28;1612;-65
2022/10/22 06:49:24;;;;;;;;;;;12.10;99.90;;;;;;5110836;28;1191;-65
2022/10/22 06:51:51;;;;;;;;;;;12.10;99.90;;;;;;5093253;28;1238;-65
2022/10/22 06:54:16;;;;;;;;;;;12.10;99.90;;;;;;5080394;28;1179;-65
2022/10/22 06:56:42;;;;;;;;;;;12.10;99.90;;;;;;5112584;27;1165;-65
2022/10/22 06:59:08;;;;;;;;;;;12.20;99.90;;;;;;5093719;28;1169;-65
2022/10/22 07:01:34;;;;;;;;;;;12.20;99.90;;;;;;5112189;28;1926;-65
2022/10/22 07:04:00;;;;;;;;;;;12.20;99.90;;;;;;5111490;27;1209;-65
2022/10/22 07:06:26;;;;;;;;;;;12.20;99.90;;;;;;5093854;28;1085;-65
2022/10/22 07:08:53;;;;;;;;;;;12.30;99.90;;;;;;5111718;28;1123;-65
2022/10/22 07:11:20;;;;;;;;;;;12.30;99.90;;;;;;5111463;28;1135;-64
2022/10/22 07:13:47;;;;;;;;;;;12.30;99.90;;;;;;5112839;27;1242;-65
2022/10/22 07:16:12;;;;;;;;;;;12.40;99.90;;;;;;5112111;28;1095;-65
2022/10/22 07:18:39;;;;;;;;;;;12.50;99.90;;;;;;5108147;28;3125;-65
2022/10/22 07:21:05;;;;;;;;;;;12.50;99.90;;;;;;5101620;28;3104;-65
2022/10/22 07:23:31;;;;;;;;;;;12.60;99.90;;;;;;5105841;28;1205;-65
2022/10/22 07:25:57;;;;;;;;;;;12.60;99.90;;;;;;5088884;28;1094;-65
2022/10/22 07:28:22;;;;;;;;;;;12.70;99.90;;;;;;5110169;28;1346;-65
2022/10/22 07:30:48;;;;;;;;;;;12.70;99.90;;;;;;5106221;27;1101;-65
2022/10/22 07:33:14;;;;;;;;;;;12.70;99.90;;;;;;5093156;28;1175;-65
2022/10/22 07:35:39;;;;;;;;;;;12.80;99.90;;;;;;5111186;28;1072;-65
2022/10/22 07:38:06;;;;;;;;;;;12.80;99.90;;;;;;5110548;28;1100;-65
2022/10/22 07:40:32;;;;;;;;;;;12.90;99.90;;;;;;5103093;27;1918;-65
2022/10/22 07:42:57;;;;;;;;;;;13.00;99.90;;;;;;5093093;28;1187;-65
2022/10/22 07:45:23;;;;;;;;;;;13.10;99.90;;;;;;5110571;28;1165;-65
2022/10/22 07:47:49;;;;;;;;;;;13.10;99.90;;;;;;5111276;28;1178;-65
2022/10/22 07:50:15;;;;;;;;;;;13.20;99.90;;;;;;5110306;28;1095;-65
2022/10/22 07:52:41;;;;;;;;;;;13.30;99.90;;;;;;5110547;28;1167;-65
2022/10/22 07:55:06;;;;;;;;;;;13.40;99.90;;;;;;5056304;28;1640;-65
2022/10/22 07:57:32;;;;;;;;;;;13.50;99.90;;;;;;5109677;28;1184;-65
2022/10/22 07:59:58;;;;;;;;;;;13.60;99.90;;;;;;5110778;28;984;-65
2022/10/22 08:02:24;;;;;;;;;;;13.60;99.90;;;;;;5111338;28;1128;-65
2022/10/22 08:04:50;;;;;;;;;;;13.70;99.90;;;;;;5093084;28;1156;-65
2022/10/22 08:07:16;;;;;;;;;;;13.70;99.90;;;;;;5109424;28;1194;-65
2022/10/22 08:09:42;;;;;;;;;;;13.80;99.90;;;;;;5092551;28;1320;-65
2022/10/22 08:12:08;;;;;;;;;;;13.80;99.90;;;;;;5110673;28;1263;-65
2022/10/22 08:14:33;;;;;;;;;;;13.90;99.90;;;;;;5089192;28;3194;-65
2022/10/22 08:16:59;;;;;;;;;;;13.90;99.90;;;;;;5109586;28;3222;-65
2022/10/22 08:19:25;;;;;;;;;;;14.00;99.90;;;;;;5110352;28;1074;-65
2022/10/22 08:21:50;;;;;;;;;;;14.00;99.90;;;;;;5100523;28;3048;-65
2022/10/22 08:24:16;;;;;;;;;;;14.00;99.90;;;;;;5109967;28;1014;-65
2022/10/22 08:26:42;;;;;;;;;;;14.00;99.90;;;;;;5109714;28;1164;-65
2022/10/22 08:29:07;;;;;;;;;;;14.10;99.90;;;;;;5091630;28;1398;-65
2022/10/22 08:31:33;;;;;;;;;;;14.10;99.90;;;;;;5110503;28;1176;-65
2022/10/22 08:33:59;;;;;;;;;;;14.20;99.90;;;;;;5108638;28;1173;-65
2022/10/22 08:36:24;;;;;;;;;;;14.20;99.90;;;;;;5109503;28;1150;-65
2022/10/22 08:38:50;;;;;;;;;;;14.20;99.90;;;;;;5110497;28;1018;-65
2022/10/22 08:41:18;;;;;;;;;;;14.30;99.90;;;;;;5109420;28;1988;-65
2022/10/22 08:44:02;;;;;;;;;;;14.20;99.90;;;;;;5109454;28;1196;-66
2022/10/22 08:46:37;;;;;;;;;;;14.20;99.90;;;;;;5105453;28;1100;-65
2022/10/22 08:49:04;;;;;;;;;;;14.00;99.90;;;;;;5123111;27;1193;-65
2022/10/22 08:51:32;;;;;;;;;;;14.00;99.90;;;;;;5125119;27;1117;-65
2022/10/22 08:54:06;;;;;;;;;;;14.00;99.90;;;;;;5099623;27;1811;-65
2022/10/22 08:56:34;;;;;;;;;;;13.90;99.90;;;;;;5119420;27;1192;-66
2022/10/22 08:59:04;;;;;;;;;;;13.90;99.90;;;;;;5114626;27;1080;-66
2022/10/22 09:01:37;;;;;;;;;;;13.90;99.90;;;;;;5102049;28;1987;-65
2022/10/22 09:04:09;;;;;;;;;;;13.90;99.90;;;;;;5109050;28;1198;-65
2022/10/22 09:06:36;;;;;;;;;;;13.90;99.90;;;;;;5110026;28;1084;-65
2022/10/22 09:09:08;;;;;;;;;;;13.90;99.90;;;;;;5108689;28;1309;-65
2022/10/22 09:11:36;;;;;;;;;;;14.00;99.90;;;;;;5109395;28;1118;-66
2022/10/22 09:14:02;;;;;;;;;;;14.10;99.90;;;;;;5091212;28;1096;-65
2022/10/22 09:16:35;;;;;;;;;;;14.30;99.90;;;;;;5109293;28;1167;-65
2022/10/22 09:19:05;;;;;;;;;;;14.40;99.90;;;;;;5108940;28;1138;-65
2022/10/22 09:21:42;;;;;;;;;;;14.50;99.90;;;;;;5098692;27;1910;-65
2022/10/22 09:24:11;;;;;;;;;;;14.60;99.90;;;;;;5117309;28;1211;-65
2022/10/22 09:26:38;;;;;;;;;;;14.70;99.90;;;;;;5112550;28;1263;-66
2022/10/22 09:29:04;;;;;;;;;;;14.80;99.90;;;;;;5109498;28;1279;-65
2022/10/22 09:31:31;;;;;;;;;;;14.90;99.90;;;;;;5091067;28;1093;-66
2022/10/22 09:33:58;;;;;;;;;;;15.00;99.90;;;;;;5113504;28;1139;-66
2022/10/22 09:36:27;;;;;;;;;;;15.10;99.90;;;;;;5113492;28;1112;-65
2022/10/22 09:38:53;;;;;;;;;;;15.20;99.90;;;;;;5099696;27;1085;-66
2022/10/22 09:41:21;;;;;;;;;;;15.40;99.90;;;;;;5120437;27;1909;-65
2022/10/22 09:43:47;;;;;;;;;;;15.50;99.90;;;;;;5118803;27;1171;-66
2022/10/22 09:46:19;;;;;;;;;;;15.60;99.90;;;;;;5094604;28;1178;-66
2022/10/22 09:48:50;;;;;;;;;;;15.80;99.90;;;;;;5106149;27;1198;-66
2022/10/22 09:51:18;;;;;;;;;;;16.00;99.90;;;;;;5132436;27;1254;-65
2022/10/22 09:53:45;;;;;;;;;;;16.30;99.90;;;;;;5134001;27;1278;-66
2022/10/22 09:56:17;;;;;;;;;;;16.60;99.90;;;;;;5133662;27;1305;-66
2022/10/22 09:58:45;;;;;;;;;;;16.70;99.90;;;;;;5122653;27;3965;-66
2022/10/22 10:01:18;;;;;;;;;;;17.30;99.90;;;;;;5129578;27;3462;-65
2022/10/22 10:03:44;;;;;;;;;;;17.50;99.90;;;;;;5130441;27;3215;-66
2022/10/22 10:06:11;;;;;;;;;;;17.40;99.90;;;;;;5132589;27;1190;-66
2022/10/22 10:08:36;;;;;;;;;;;17.20;99.90;;;;;;5133856;27;3074;-66
2022/10/22 10:11:08;;;;;;;;;;;17.10;99.90;;;;;;5137505;27;1260;-66
2022/10/22 10:13:37;;;;;;;;;;;16.80;99.90;;;;;;5132647;27;1068;-66
2022/10/22 10:16:09;;;;;;;;;;;16.80;99.90;;;;;;5134343;27;1630;-66
2022/10/22 10:18:42;;;;;;;;;;;16.50;99.90;;;;;;5133256;27;1112;-65
2022/10/22 10:21:16;;;;;;;;;;;16.30;99.90;;;;;;5132744;27;1969;-66
2022/10/22 10:23:53;;;;;;;;;;;16.20;99.90;;;;;;5133348;27;1088;-66
2022/10/22 10:26:30;;;;;;;;;;;16.20;99.90;;;;;;5132582;27;1084;-66
2022/10/22 10:29:12;;;;;;;;;;;16.00;99.90;;;;;;5138465;27;1325;-66
2022/10/22 10:31:48;;;;;;;;;;;15.80;99.90;;;;;;5132852;27;2042;-66
2022/10/22 10:34:22;;;;;;;;;;;15.80;99.90;;;;;;5132071;27;1111;-66
2022/10/22 10:36:53;;;;;;;;;;;15.70;99.90;;;;;;5136487;27;1108;-66
2022/10/22 10:39:23;;;;;;;;;;;15.70;99.90;;;;;;5136568;27;1082;-66
2022/10/22 10:42:01;;;;;;;;;;;15.70;99.90;;;;;;5131294;27;1910;-65
2022/10/22 10:44:31;;;;;;;;;;;15.60;99.90;;;;;;5112246;27;1504;-66
2022/10/22 10:47:04;;;;;;;;;;;15.60;99.90;;;;;;5120682;27;3306;-65
2022/10/22 10:49:32;;;;;;;;;;;15.60;99.90;;;;;;5120525;27;3481;-66
2022/10/22 10:52:10;;;;;;;;;;;15.60;99.90;;;;;;5110957;27;1135;-65
2022/10/22 10:54:53;;;;;;;;;;;15.50;99.90;;;;;;5125023;27;3442;-66
2022/10/22 10:57:28;;;;;;;;;;;15.40;99.90;;;;;;5132411;27;1090;-66
2022/10/22 10:59:55;;;;;;;;;;;15.40;99.90;;;;;;5132655;27;1100;-65
2022/10/22 11:02:35;;;;;;;;;;;15.40;99.90;;;;;;5129342;27;1945;-65
2022/10/22 11:05:09;;;;;;;;;;;15.40;99.90;;;;;;5132144;27;1034;-66
2022/10/22 11:07:39;;;;;;;;;;;15.40;99.90;;;;;;5137402;27;1187;-65
2022/10/22 11:10:12;;;;;;;;;;;15.40;99.90;;;;;;5136306;27;1063;-66
2022/10/22 11:12:40;;;;;;;;;;;15.50;99.90;;;;;;5131845;27;1079;-66
2022/10/22 11:15:26;;;;;;;;;;;15.50;99.90;;;;;;5140863;27;1362;-65
2022/10/22 11:17:54;;;;;;;;;;;15.60;99.90;;;;;;5132020;27;1119;-65
2022/10/22 11:20:23;;;;;;;;;;;15.60;99.90;;;;;;5113801;27;1972;-66
2022/10/22 11:22:58;;;;;;;;;;;15.50;99.90;;;;;;5131074;27;1157;-65
2022/10/22 11:25:27;;;;;;;;;;;15.50;99.90;;;;;;5131751;27;1095;-65
2022/10/22 11:27:56;;;;;;;;;;;15.50;99.90;;;;;;5132080;27;1111;-65
2022/10/22 11:30:23;;;;;;;;;;;15.50;99.90;;;;;;5139422;27;1445;-66
2022/10/22 11:32:55;;;;;;;;;;;15.40;99.90;;;;;;5131537;27;1209;-65
2022/10/22 11:35:23;;;;;;;;;;;15.50;99.90;;;;;;5131792;27;1167;-65
2022/10/22 11:37:49;;;;;;;;;;;15.50;99.90;;;;;;5131503;27;1135;-65
2022/10/22 11:40:19;;;;;;;;;;;15.40;99.90;;;;;;5131313;27;1910;-65
2022/10/22 11:42:48;;;;;;;;;;;15.40;99.90;;;;;;5132100;27;1120;-66
2022/10/22 11:45:13;;;;;;;;;;;15.30;99.90;;;;;;5130981;27;1114;-66
2022/10/22 11:47:50;;;;;;;;;;;15.30;99.90;;;;;;5130737;27;1365;-65
2022/10/22 11:50:20;;;;;;;;;;;15.20;99.90;;;;;;5118660;27;1119;-65
2022/10/22 11:52:53;;;;;;;;;;;15.00;99.90;;;;;;5091903;28;1110;-65
2022/10/22 11:55:47;;;;;;;;;;;14.80;99.90;;;;;;5109634;28;1122;-65
2022/10/22 11:58:29;;;;;;;;;;;14.70;99.90;;;;;;5116224;27;1210;-65
2022/10/22 12:00:57;;;;;;;;;;;14.60;99.90;;;;;;5110537;28;1970;-66
2022/10/22 12:03:39;;;;;;;;;;;14.60;99.90;;;;;;5107498;28;1204;-65
2022/10/22 12:06:10;;;;;;;;;;;14.60;99.90;;;;;;5105015;27;1247;-65
2022/10/22 12:08:48;;;;;;;;;;;14.60;99.90;;;;;;5110062;28;1294;-66
2022/10/22 12:11:16;;;;;;;;;;;14.60;99.90;;;;;;5108166;28;1180;-65
2022/10/22 12:14:01;;;;;;;;;;;14.70;99.90;;;;;;5109640;28;1223;-65
2022/10/22 12:16:28;;;;;;;;;;;14.90;99.90;;;;;;5110115;28;1204;-65
2022/10/22 12:19:03;;;;;;;;;;;15.00;99.90;;;;;;5109781;28;1108;-66
2022/10/22 12:21:31;;;;;;;;;;;15.00;99.90;;;;;;5110617;28;1926;-65
2022/10/22 12:23:56;;;;;;;;;;;15.00;99.90;;;;;;5111081;27;1188;-65
2022/10/22 12:26:23;;;;;;;;;;;15.00;99.90;;;;;;5109491;28;1223;-65
2022/10/22 12:28:49;;;;;;;;;;;15.00;99.90;;;;;;5110062;28;1274;-65
2022/10/22 12:31:15;;;;;;;;;;;14.90;99.90;;;;;;5110218;28;1159;-65
2022/10/22 12:33:40;;;;;;;;;;;14.90;99.90;;;;;;5099946;28;1348;-65
2022/10/22 12:36:06;;;;;;;;;;;14.80;99.90;;;;;;5109959;28;1143;-65
2022/10/22 12:38:32;;;;;;;;;;;14.80;99.90;;;;;;5109902;28;1301;-65
2022/10/22 12:40:57;;;;;;;;;;;14.70;99.90;;;;;;5089795;28;2273;-65
2022/10/22 12:43:24;;;;;;;;;;;14.60;99.90;;;;;;5108566;28;1215;-65
2022/10/22 12:45:50;;;;;;;;;;;14.60;99.90;;;;;;5108234;28;1297;-65
2022/10/22 12:48:18;;;;;;;;;;;14.80;99.90;;;;;;5111253;27;1235;-65
2022/10/22 12:50:47;;;;;;;;;;;14.90;99.90;;;;;;5117194;27;1176;-65
2022/10/22 12:53:12;;;;;;;;;;;15.00;99.90;;;;;;5126825;27;1226;-65
2022/10/22 12:55:38;;;;;;;;;;;15.00;99.90;;;;;;5102399;27;1768;-65
2022/10/22 12:58:04;;;;;;;;;;;15.00;99.90;;;;;;5116320;27;1257;-66
2022/10/22 13:00:31;;;;;;;;;;;15.00;99.90;;;;;;5116372;27;3431;-65
2022/10/22 13:02:58;;;;;;;;;;;15.00;99.90;;;;;;5117033;27;3099;-65
2022/10/22 13:05:26;;;;;;;;;;;15.00;99.90;;;;;;5113715;27;3154;-65
2022/10/22 13:07:53;;;;;;;;;;;15.00;99.90;;;;;;5114680;27;1317;-65
2022/10/22 13:10:23;;;;;;;;;;;15.10;99.90;;;;;;5113772;27;1278;-65
2022/10/22 13:12:53;;;;;;;;;;;15.20;99.90;;;;;;5109889;28;1080;-66
2022/10/22 13:15:18;;;;;;;;;;;15.40;99.90;;;;;;5108618;28;1448;-65
2022/10/22 13:17:45;;;;;;;;;;;15.80;99.90;;;;;;5102554;28;3064;-65
2022/10/22 13:20:16;;;;;;;;;;;16.20;99.90;;;;;;5126659;27;1910;-66
2022/10/22 13:22:59;;;;;;;;;;;16.30;99.90;;;;;;5129394;27;1162;-66
2022/10/22 13:25:27;;;;;;;;;;;16.10;99.90;;;;;;5120367;27;1130;-65
2022/10/22 13:27:52;;;;;;;;;;;15.90;99.90;;;;;;5111862;28;1209;-66
2022/10/22 13:30:21;;;;;;;;;;;15.70;99.90;;;;;;5120170;28;1333;-65
2022/10/22 13:32:49;;;;;;;;;;;15.60;99.90;;;;;;5100081;28;1234;-66
2022/10/22 13:35:15;;;;;;;;;;;15.50;99.90;;;;;;5099519;28;1250;-65
2022/10/22 13:37:41;;;;;;;;;;;15.50;99.90;;;;;;5098845;28;1160;-65
2022/10/22 13:40:11;;;;;;;;;;;15.70;99.90;;;;;;5115002;28;1293;-66
2022/10/22 13:42:38;;;;;;;;;;;16.30;99.90;;;;;;5119418;28;1084;-66
2022/10/22 13:45:04;;;;;;;;;;;16.80;99.90;;;;;;5108707;28;1055;-66
2022/10/22 13:47:29;;;;;;;;;;;17.30;99.90;;;;;;5111653;28;1198;-65
2022/10/22 13:49:57;;;;;;;;;;;17.30;99.90;;;;;;5119261;28;1175;-66
2022/10/22 13:52:27;;;;;;;;;;;17.30;99.90;;;;;;5119320;28;1206;-66
2022/10/22 13:54:53;;;;;;;;;;;17.50;99.90;;;;;;5117567;28;1274;-66
2022/10/22 13:57:18;;;;;;;;;;;17.70;99.90;;;;;;5119794;28;1271;-66
2022/10/22 13:59:44;;;;;;;;;;;17.50;99.90;;;;;;5109324;28;1119;-66
2022/10/22 14:02:11;;;;;;;;;;;17.50;99.90;;;;;;5108351;28;1963;-66
2022/10/22 14:04:37;;;;;;;;;;;17.60;99.90;;;;;;5100523;28;1216;-66
2022/10/22 14:07:07;;;;;;;;;;;17.60;99.90;;;;;;5109274;28;1343;-66
2022/10/22 14:09:33;;;;;;;;;;;17.80;99.90;;;;;;5108210;28;1241;-66
2022/10/22 14:11:58;;;;;;;;;;;18.10;99.90;;;;;;5108538;28;1179;-65
2022/10/22 14:14:24;;;;;;;;;;;17.70;99.90;;;;;;5109156;28;1354;-66
2022/10/22 14:16:50;;;;;;;;;;;17.70;99.90;;;;;;5108696;28;1170;-66
2022/10/22 14:19:16;;;;;;;;;;;17.70;99.90;;;;;;5111023;28;1141;-65
2022/10/22 14:21:42;;;;;;;;;;;18.00;99.90;;;;;;5113099;28;1968;-66
2022/10/22 14:24:08;;;;;;;;;;;18.50;99.90;;;;;;5112426;28;1287;-66
2022/10/22 14:26:34;;;;;;;;;;;19.00;99.90;;;;;;5111852;28;1112;-66
2022/10/22 14:29:00;;;;;;;;;;;18.60;99.90;;;;;;5112673;28;1446;-66
2022/10/22 14:31:26;;;;;;;;;;;17.70;99.90;;;;;;5112336;28;1048;-66
2022/10/22 14:33:52;;;;;;;;;;;17.00;99.90;;;;;;5111851;28;1104;-66